createdAt,value
2018-05-03T00:00:44.332Z,100740.27
2018-05-03T00:01:49.273Z,100739.46
2018-05-03T00:02:54.213Z,100736.40
2018-05-03T00:03:58.381Z,100745.78
2018-05-03T00:05:02.714Z,100748.80
2018-05-03T00:06:07.652Z,100745.08
2018-05-03T00:07:11.816Z,100748.14
2018-05-03T00:08:15.985Z,100749.59
2018-05-03T00:09:20.160Z,100757.13
2018-05-03T00:10:24.512Z,100751.52
2018-05-03T00:11:28.685Z,100748.81
2018-05-03T00:12:33.617Z,100753.09
2018-05-03T00:13:38.612Z,100753.30
2018-05-03T00:14:42.790Z,100752.55
2018-05-03T00:15:46.977Z,100749.33
2018-05-03T00:16:51.904Z,100746.67
2018-05-03T00:17:56.842Z,100749.86
2018-05-03T00:19:01.035Z,100748.20
2018-05-03T00:20:06.005Z,100751.48
2018-05-03T00:21:10.377Z,100750.44
2018-05-03T00:22:15.304Z,100751.94
2018-05-03T00:23:20.238Z,100751.55
2018-05-03T00:24:25.190Z,100752.31
2018-05-03T00:25:30.193Z,100743.45
2018-05-03T00:26:35.317Z,100751.81
2018-05-03T00:27:40.250Z,100750.06
2018-05-03T00:28:45.190Z,100759.13
2018-05-03T00:29:50.134Z,100752.09
2018-05-03T00:30:54.300Z,100752.64
2018-05-03T00:31:58.634Z,100753.50
2018-05-03T00:33:03.569Z,100749.21
2018-05-03T00:34:07.733Z,100743.11
2018-05-03T00:35:11.905Z,100750.05
2018-05-03T00:36:16.080Z,100751.66
2018-05-03T00:37:21.156Z,100750.23
2018-05-03T00:38:25.324Z,100753.43
2018-05-03T00:39:30.269Z,100749.62
2018-05-03T00:40:34.442Z,100752.40
2018-05-03T00:41:38.609Z,100749.90
2018-05-03T00:42:43.141Z,100748.61
2018-05-03T00:43:47.314Z,100757.66
2018-05-03T00:44:51.493Z,100752.50
2018-05-03T00:45:55.664Z,100747.50
2018-05-03T00:46:59.850Z,100754.01
2018-05-03T00:48:04.449Z,100750.95
2018-05-03T00:49:09.380Z,100753.20
2018-05-03T00:50:14.323Z,100760.06
2018-05-03T00:51:18.522Z,100754.38
2018-05-03T00:52:23.461Z,100755.73
2018-05-03T00:53:27.856Z,100761.81
2018-05-03T00:54:48.609Z,100758.44
2018-05-03T00:55:52.797Z,100756.41
2018-05-03T00:56:56.973Z,100755.14
2018-05-03T00:58:01.914Z,100751.65
2018-05-03T00:59:06.893Z,100755.60
2018-05-03T01:00:11.076Z,100749.58
2018-05-03T01:01:15.257Z,100753.53
2018-05-03T01:02:20.193Z,100755.32
2018-05-03T01:03:25.139Z,100755.06
2018-05-03T01:04:29.340Z,100751.97
2018-05-03T01:05:33.599Z,100753.78
2018-05-03T01:06:37.781Z,100752.77
2018-05-03T01:07:41.961Z,100747.05
2018-05-03T01:08:47.370Z,100756.44
2018-05-03T01:09:51.542Z,100756.94
2018-05-03T01:10:55.712Z,100757.31
2018-05-03T01:12:00.653Z,100760.41
2018-05-03T01:13:04.842Z,100759.20
2018-05-03T01:14:09.813Z,100763.94
2018-05-03T01:15:13.980Z,100767.06
2018-05-03T01:16:18.926Z,100761.84
2018-05-03T01:17:24.321Z,100762.94
2018-05-03T01:18:28.505Z,100759.94
2018-05-03T01:19:32.690Z,100765.08
2018-05-03T01:20:36.871Z,100769.39
2018-05-03T01:21:41.809Z,100770.56
2018-05-03T01:22:46.952Z,100777.54
2018-05-03T01:23:51.990Z,100773.97
2018-05-03T01:24:56.182Z,100780.56
2018-05-03T01:26:01.126Z,100777.47
2018-05-03T01:27:05.292Z,100780.89
2018-05-03T01:28:09.841Z,100778.06
2018-05-03T01:29:14.787Z,100781.38
2018-05-03T01:30:18.983Z,100782.13
2018-05-03T01:31:23.953Z,100786.42
2018-05-03T01:32:28.135Z,100783.88
2018-05-03T01:33:32.529Z,100792.47
2018-05-03T01:34:37.482Z,100788.02
2018-05-03T01:37:27.189Z,100777.89
2018-05-03T01:38:31.360Z,100785.25
2018-05-03T01:39:36.333Z,100786.32
2018-05-03T01:40:40.611Z,100787.70
2018-05-03T01:41:44.824Z,100794.08
2018-05-03T01:42:49.004Z,100795.78
2018-05-03T01:43:53.176Z,100796.70
2018-05-03T01:44:57.462Z,100798.92
2018-05-03T01:46:01.874Z,100805.52
2018-05-03T01:47:06.826Z,100805.89
2018-05-03T01:48:10.996Z,100810.80
2018-05-03T01:49:15.954Z,100810.73
2018-05-03T01:50:20.138Z,100810.38
2018-05-03T01:51:25.472Z,100810.36
2018-05-03T01:52:30.421Z,100814.62
2018-05-03T01:53:34.593Z,100818.18
2018-05-03T01:54:38.774Z,100825.14
2018-05-03T01:55:42.945Z,100825.88
2018-05-03T01:56:47.147Z,100835.69
2018-05-03T01:57:52.089Z,100838.73
2018-05-03T01:58:56.295Z,100832.92
2018-05-03T02:00:00.465Z,100833.77
2018-05-03T02:01:04.653Z,100833.81
2018-05-03T02:02:08.928Z,100839.96
2018-05-03T02:03:13.182Z,100838.55
2018-05-03T02:04:17.369Z,100842.92
2018-05-03T02:05:21.536Z,100849.84
2018-05-03T02:06:26.480Z,100845.47
2018-05-03T02:07:30.656Z,100849.38
2018-05-03T02:08:34.842Z,100853.50
2018-05-03T02:09:39.021Z,100854.95
2018-05-03T02:10:43.214Z,100854.98
2018-05-03T02:11:48.153Z,100853.77
2018-05-03T02:12:52.325Z,100853.91
2018-05-03T02:13:56.531Z,100849.11
2018-05-03T02:15:00.752Z,100850.92
2018-05-03T02:16:04.952Z,100856.59
2018-05-03T02:17:09.186Z,100857.61
2018-05-03T02:18:14.121Z,100859.05
2018-05-03T02:19:19.070Z,100859.56
2018-05-03T02:20:23.669Z,100863.47
2018-05-03T02:21:27.845Z,100867.09
2018-05-03T02:22:32.060Z,100874.41
2018-05-03T02:23:36.229Z,100885.19
2018-05-03T02:24:40.396Z,100884.50
2018-05-03T02:25:44.617Z,100892.78
2018-05-03T02:26:49.548Z,100901.44
2018-05-03T02:27:54.480Z,100894.17
2018-05-03T02:28:59.425Z,100895.95
2018-05-03T02:30:03.601Z,100900.30
2018-05-03T02:31:08.589Z,100901.28
2018-05-03T02:32:12.771Z,100901.45
2018-05-03T02:33:16.952Z,100898.13
2018-05-03T02:34:21.122Z,100897.88
2018-05-03T02:35:25.298Z,100902.53
2018-05-03T02:36:29.492Z,100903.02
2018-05-03T02:37:33.677Z,100903.59
2018-05-03T02:38:37.854Z,100902.00
2018-05-03T02:39:42.023Z,100903.73
2018-05-03T02:40:46.965Z,100908.41
2018-05-03T02:41:51.195Z,100909.33
2018-05-03T02:42:55.439Z,100909.88
2018-05-03T02:43:59.605Z,100910.33
2018-05-03T02:45:03.777Z,100917.84
2018-05-03T02:46:07.948Z,100918.37
2018-05-03T02:47:12.126Z,100914.23
2018-05-03T02:48:16.326Z,100915.56
2018-05-03T02:49:21.273Z,100910.52
2018-05-03T02:50:25.450Z,100911.36
2018-05-03T02:51:30.376Z,100912.50
2018-05-03T02:52:35.314Z,100908.20
2018-05-03T02:53:40.274Z,100909.54
2018-05-03T02:54:44.483Z,100913.36
2018-05-03T02:55:48.689Z,100921.61
2018-05-03T02:56:52.852Z,100921.22
2018-05-03T02:58:18.616Z,100923.38
2018-05-03T03:01:30.805Z,100932.09
2018-05-03T03:02:59.219Z,100934.47
2018-05-03T03:04:26.792Z,100934.97
2018-05-03T03:05:52.683Z,100938.06
2018-05-03T03:09:31.230Z,100942.86
2018-05-03T03:15:32.149Z,100946.64
2018-05-03T03:16:59.963Z,100951.36
2018-05-03T03:18:29.961Z,100953.68
2018-05-03T03:19:52.658Z,100956.72
2018-05-03T03:21:20.225Z,100958.39
2018-05-03T03:22:47.837Z,100959.70
2018-05-03T03:24:15.539Z,100961.91
2018-05-03T03:27:43.240Z,100959.89
2018-05-03T03:29:10.970Z,100964.35
2018-05-03T03:30:39.814Z,100963.17
2018-05-03T03:32:07.410Z,100973.86
2018-05-03T03:33:30.248Z,100973.52
2018-05-03T03:34:34.412Z,100973.03
2018-05-03T03:37:39.039Z,100976.23
2018-05-03T03:40:56.159Z,100981.09
2018-05-03T03:42:01.146Z,100982.42
2018-05-03T03:43:05.389Z,100980.73
2018-05-03T03:44:27.343Z,100993.53
2018-05-03T03:45:31.512Z,100993.23
2018-05-03T03:46:35.680Z,100988.95
2018-05-03T03:47:39.845Z,100994.51
2018-05-03T03:48:44.025Z,101002.19
2018-05-03T03:49:48.193Z,100999.32
2018-05-03T03:50:52.356Z,101004.44
2018-05-03T03:51:56.517Z,101003.61
2018-05-03T03:53:00.721Z,101008.27
2018-05-03T03:54:04.949Z,101012.61
2018-05-03T03:55:09.141Z,101015.21
2018-05-03T03:56:14.078Z,101012.78
2018-05-03T03:57:18.238Z,101017.89
2018-05-03T03:58:22.392Z,101015.27
2018-05-03T03:59:26.896Z,101013.59
2018-05-03T04:00:31.823Z,101019.16
2018-05-03T04:01:36.757Z,101017.89
2018-05-03T04:02:41.692Z,101011.97
2018-05-03T04:03:45.935Z,101015.45
2018-05-03T04:04:50.844Z,101015.50
2018-05-03T04:05:55.287Z,101017.63
2018-05-03T04:06:59.449Z,101020.57
2018-05-03T04:08:04.530Z,101021.77
2018-05-03T04:09:08.689Z,101023.60
2018-05-03T04:10:12.846Z,101024.45
2018-05-03T04:11:17.000Z,101026.98
2018-05-03T04:12:21.929Z,101029.05
2018-05-03T04:13:26.881Z,101034.53
2018-05-03T04:14:31.077Z,101034.95
2018-05-03T04:15:35.289Z,101038.70
2018-05-03T04:16:39.464Z,101038.30
2018-05-03T04:18:01.490Z,101044.66
2018-05-03T04:19:25.026Z,101049.41
2018-05-03T04:21:02.664Z,101046.48
2018-05-03T04:22:24.565Z,101052.88
2018-05-03T04:23:41.378Z,101052.88
2018-05-03T04:25:03.383Z,101055.02
2018-05-03T04:26:07.627Z,101048.23
2018-05-03T04:27:11.785Z,101056.76
2018-05-03T04:28:15.956Z,101057.19
2018-05-03T04:29:20.112Z,101055.45
2018-05-03T04:30:24.265Z,101059.69
2018-05-03T04:31:28.509Z,101060.56
2018-05-03T04:32:33.429Z,101057.92
2018-05-03T04:33:38.353Z,101062.17
2018-05-03T04:34:43.299Z,101070.29
2018-05-03T04:35:48.212Z,101065.56
2018-05-03T04:36:53.165Z,101071.09
2018-05-03T04:37:57.333Z,101074.05
2018-05-03T04:39:02.284Z,101073.23
2018-05-03T04:40:07.208Z,101072.39
2018-05-03T04:41:12.149Z,101072.39
2018-05-03T04:42:16.310Z,101073.53
2018-05-03T04:43:20.498Z,101073.16
2018-05-03T04:44:24.724Z,101075.73
2018-05-03T04:45:28.876Z,101077.39
2018-05-03T04:46:33.801Z,101079.90
2018-05-03T04:47:38.728Z,101082.03
2018-05-03T04:48:42.908Z,101084.56
2018-05-03T04:49:47.116Z,101081.53
2018-05-03T04:50:51.295Z,101078.91
2018-05-03T04:51:55.448Z,101078.55
2018-05-03T04:52:59.602Z,101084.14
2018-05-03T04:54:03.841Z,101088.89
2018-05-03T04:55:08.722Z,101090.66
2018-05-03T04:56:13.328Z,101092.36
2018-05-03T04:57:17.483Z,101092.76
2018-05-03T04:58:21.640Z,101095.41
2018-05-03T04:59:25.809Z,101094.62
2018-05-03T05:00:29.977Z,101098.01
2018-05-03T05:01:34.960Z,101103.48
2018-05-03T05:02:39.122Z,101106.45
2018-05-03T05:03:44.045Z,101104.22
2018-05-03T05:04:48.986Z,101109.73
2018-05-03T05:05:53.149Z,101110.20
2018-05-03T05:06:57.333Z,101114.03
2018-05-03T05:08:01.498Z,101109.34
2018-05-03T05:09:06.442Z,101114.91
2018-05-03T05:10:10.596Z,101115.74
2018-05-03T05:11:14.774Z,101116.56
2018-05-03T05:12:18.945Z,101116.91
2018-05-03T05:13:23.111Z,101115.52
2018-05-03T05:14:27.473Z,101116.39
2018-05-03T05:15:32.411Z,101120.16
2018-05-03T05:16:37.342Z,101119.25
2018-05-03T05:17:41.523Z,101122.62
2018-05-03T05:18:45.680Z,101118.30
2018-05-03T05:19:49.884Z,101125.91
2018-05-03T05:20:54.057Z,101125.89
2018-05-03T05:21:58.232Z,101125.59
2018-05-03T05:23:02.393Z,101126.89
2018-05-03T05:24:06.696Z,101129.38
2018-05-03T05:25:10.822Z,101126.84
2018-05-03T05:26:15.767Z,101129.06
2018-05-03T05:27:20.369Z,101135.79
2018-05-03T05:28:25.301Z,101131.18
2018-05-03T05:29:29.474Z,101139.36
2018-05-03T05:30:33.637Z,101138.50
2018-05-03T05:31:37.814Z,101132.87
2018-05-03T05:32:42.817Z,101138.23
2018-05-03T05:33:47.069Z,101143.65
2018-05-03T05:34:51.282Z,101146.17
2018-05-03T05:35:55.437Z,101144.86
2018-05-03T05:36:59.612Z,101149.82
2018-05-03T05:38:03.917Z,101154.33
2018-05-03T05:39:08.085Z,101154.67
2018-05-03T05:40:12.270Z,101162.25
2018-05-03T05:41:16.479Z,101162.59
2018-05-03T05:42:20.637Z,101167.28
2018-05-03T05:43:25.626Z,101165.91
2018-05-03T05:44:29.830Z,101161.45
2018-05-03T05:45:33.989Z,101170.71
2018-05-03T05:46:38.921Z,101172.31
2018-05-03T05:47:43.848Z,101173.12
2018-05-03T05:48:48.802Z,101173.05
2018-05-03T05:49:53.046Z,101175.59
2018-05-03T05:50:57.278Z,101171.20
2018-05-03T05:52:01.416Z,101170.38
2018-05-03T05:53:05.572Z,101173.38
2018-05-03T05:54:09.741Z,101172.56
2018-05-03T05:55:13.942Z,101178.06
2018-05-03T05:56:18.879Z,101176.80
2018-05-03T05:57:23.043Z,101179.74
2018-05-03T05:58:27.214Z,101179.32
2018-05-03T05:59:31.532Z,101179.06
2018-05-03T06:00:35.727Z,101180.66
2018-05-03T06:01:39.902Z,101189.27
2018-05-03T06:02:44.429Z,101193.93
2018-05-03T06:03:49.356Z,101193.50
2018-05-03T06:04:54.276Z,101197.78
2018-05-03T06:05:58.441Z,101195.66
2018-05-03T06:07:02.678Z,101199.16
2018-05-03T06:08:07.242Z,101199.49
2018-05-03T06:09:11.406Z,101198.93
2018-05-03T06:10:15.572Z,101198.86
2018-05-03T06:11:19.745Z,101203.52
2018-05-03T06:12:24.708Z,101204.66
2018-05-03T06:13:28.880Z,101209.38
2018-05-03T06:14:33.044Z,101206.36
2018-05-03T06:15:37.301Z,101213.11
2018-05-03T06:16:41.465Z,101217.75
2018-05-03T06:17:45.625Z,101222.55
2018-05-03T06:18:49.890Z,101217.54
2018-05-03T06:19:54.056Z,101220.98
2018-05-03T06:20:58.989Z,101222.25
2018-05-03T06:22:03.923Z,101226.89
2018-05-03T06:23:08.147Z,101226.34
2018-05-03T06:24:12.358Z,101224.55
2018-05-03T06:25:16.525Z,101218.93
2018-05-03T06:26:20.767Z,101217.67
2018-05-03T06:27:24.986Z,101214.70
2018-05-03T06:28:29.157Z,101220.57
2018-05-03T06:29:33.333Z,101217.07
2018-05-03T06:30:37.505Z,101224.30
2018-05-03T06:31:41.731Z,101228.06
2018-05-03T06:32:45.914Z,101230.58
2018-05-03T06:33:50.081Z,101227.58
2018-05-03T06:34:54.261Z,101234.48
2018-05-03T06:35:58.573Z,101230.13
2018-05-03T06:37:02.772Z,101231.01
2018-05-03T06:38:06.954Z,101230.94
2018-05-03T06:39:11.967Z,101226.61
2018-05-03T06:40:16.170Z,101235.05
2018-05-03T06:41:20.402Z,101237.09
2018-05-03T06:42:24.574Z,101237.92
2018-05-03T06:43:28.759Z,101237.56
2018-05-03T06:44:32.946Z,101241.26
2018-05-03T06:45:38.146Z,101243.85
2018-05-03T06:46:42.354Z,101244.31
2018-05-03T06:47:46.530Z,101240.25
2018-05-03T06:48:50.702Z,101237.94
2018-05-03T06:49:55.637Z,101243.91
2018-05-03T06:51:00.582Z,101242.46
2018-05-03T06:52:04.814Z,101243.73
2018-05-03T06:53:08.992Z,101242.72
2018-05-03T06:54:13.179Z,101247.53
2018-05-03T06:55:18.145Z,101254.91
2018-05-03T06:56:22.320Z,101259.19
2018-05-03T06:57:26.541Z,101259.08
2018-05-03T06:58:31.561Z,101260.64
2018-05-03T06:59:35.711Z,101262.20
2018-05-03T07:00:39.873Z,101267.16
2018-05-03T07:01:44.125Z,101267.97
2018-05-03T07:02:48.334Z,101269.08
2018-05-03T07:03:52.541Z,101261.49
2018-05-03T07:04:57.479Z,101261.91
2018-05-03T07:06:01.659Z,101260.45
2018-05-03T07:07:06.605Z,101261.55
2018-05-03T07:08:10.948Z,101261.87
2018-05-03T07:09:15.122Z,101262.50
2018-05-03T07:10:20.133Z,101267.16
2018-05-03T07:11:24.301Z,101275.36
2018-05-03T07:12:28.496Z,101269.78
2018-05-03T07:13:33.099Z,101271.08
2018-05-03T07:14:37.261Z,101276.50
2018-05-03T07:15:41.440Z,101274.59
2018-05-03T07:16:45.614Z,101274.39
2018-05-03T07:17:50.552Z,101277.59
2018-05-03T07:18:55.551Z,101277.43
2018-05-03T07:19:59.738Z,101267.53
2018-05-03T07:21:03.906Z,101277.70
2018-05-03T07:22:08.125Z,101277.96
2018-05-03T07:23:12.293Z,101273.19
2018-05-03T07:24:16.491Z,101278.55
2018-05-03T07:25:20.734Z,101283.86
2018-05-03T07:26:25.684Z,101282.63
2018-05-03T07:27:29.856Z,101286.04
2018-05-03T07:28:34.028Z,101282.77
2018-05-03T07:29:38.193Z,101284.25
2018-05-03T07:30:43.723Z,101284.95
2018-05-03T07:31:47.970Z,101288.27
2018-05-03T07:32:52.141Z,101289.34
2018-05-03T07:33:56.309Z,101287.89
2018-05-03T07:35:00.487Z,101292.33
2018-05-03T07:36:05.453Z,101289.16
2018-05-03T07:37:09.617Z,101297.27
2018-05-03T07:38:14.585Z,101299.92
2018-05-03T07:39:19.516Z,101303.27
2018-05-03T07:40:23.680Z,101299.67
2018-05-03T07:41:29.017Z,101304.13
2018-05-03T07:42:33.963Z,101310.41
2018-05-03T07:43:38.129Z,101309.34
2018-05-03T07:44:42.310Z,101308.37
2018-05-03T07:45:46.567Z,101307.83
2018-05-03T07:46:51.205Z,101311.78
2018-05-03T07:47:56.145Z,101311.18
2018-05-03T07:49:00.322Z,101307.09
2018-05-03T07:50:04.496Z,101308.19
2018-05-03T07:51:08.673Z,101308.52
2018-05-03T07:52:12.888Z,101306.77
2018-05-03T07:53:17.049Z,101309.34
2018-05-03T07:54:21.385Z,101315.51
2018-05-03T07:55:26.331Z,101314.17
2018-05-03T07:56:30.506Z,101308.52
2018-05-03T07:57:34.678Z,101312.23
2018-05-03T07:58:38.845Z,101311.75
2018-05-03T07:59:43.371Z,101317.12
2018-05-03T08:00:48.322Z,101314.20
2018-05-03T08:01:52.493Z,101318.67
2018-05-03T08:02:56.729Z,101316.08
2018-05-03T08:04:00.897Z,101315.78
2018-05-03T08:05:05.094Z,101321.30
2018-05-03T08:06:10.058Z,101320.35
2018-05-03T08:07:14.244Z,101319.13
2018-05-03T08:08:18.418Z,101320.86
2018-05-03T08:09:22.598Z,101320.47
2018-05-03T08:10:27.569Z,101317.81
2018-05-03T08:11:31.733Z,101320.39
2018-05-03T08:12:36.678Z,101324.33
2018-05-03T08:13:40.849Z,101318.30
2018-05-03T08:14:45.026Z,101315.47
2018-05-03T08:15:49.228Z,101324.22
2018-05-03T08:16:53.402Z,101323.06
2018-05-03T08:17:58.352Z,101324.57
2018-05-03T08:19:02.520Z,101324.20
2018-05-03T08:20:06.732Z,101327.98
2018-05-03T08:21:11.676Z,101324.39
2018-05-03T08:22:16.621Z,101326.95
2018-05-03T08:23:20.935Z,101330.30
2018-05-03T08:24:25.123Z,101329.31
2018-05-03T08:25:30.172Z,101329.45
2018-05-03T08:26:34.349Z,101332.37
2018-05-03T08:27:38.534Z,101334.34
2018-05-03T08:28:42.702Z,101335.50
2018-05-03T08:29:46.880Z,101330.34
2018-05-03T08:30:51.106Z,101334.15
2018-05-03T08:31:56.046Z,101333.11
2018-05-03T08:33:00.210Z,101326.48
2018-05-03T08:34:05.908Z,101329.05
2018-05-03T08:35:10.073Z,101330.06
2018-05-03T08:36:14.720Z,101337.23
2018-05-03T08:37:19.754Z,101336.62
2018-05-03T08:38:24.697Z,101341.51
2018-05-03T08:39:28.929Z,101345.31
2018-05-03T08:40:33.106Z,101340.53
2018-05-03T08:41:38.071Z,101343.80
2018-05-03T08:42:42.256Z,101342.64
2018-05-03T08:43:46.475Z,101342.02
2018-05-03T08:44:50.645Z,101343.00
2018-05-03T08:45:56.315Z,101340.64
2018-05-03T08:47:00.490Z,101348.14
2018-05-03T08:48:04.686Z,101344.25
2018-05-03T08:49:08.857Z,101344.88
2018-05-03T08:50:13.049Z,101345.54
2018-05-03T08:51:17.977Z,101343.62
2018-05-03T08:52:22.919Z,101349.93
2018-05-03T08:53:27.080Z,101344.91
2018-05-03T08:54:31.248Z,101342.64
2018-05-03T08:55:35.507Z,101344.91
2018-05-03T08:56:39.671Z,101345.83
2018-05-03T08:57:44.201Z,101352.55
2018-05-03T08:58:48.364Z,101354.17
2018-05-03T08:59:53.309Z,101351.31
2018-05-03T09:00:57.498Z,101360.08
2018-05-03T09:02:02.633Z,101362.17
2018-05-03T09:03:07.573Z,101360.30
2018-05-03T09:04:12.506Z,101361.67
2018-05-03T09:05:17.445Z,101366.77
2018-05-03T09:06:21.647Z,101360.18
2018-05-03T09:07:25.868Z,101362.45
2018-05-03T09:08:30.060Z,101361.02
2018-05-03T09:09:34.994Z,101364.41
2018-05-03T09:10:39.173Z,101365.23
2018-05-03T09:11:44.096Z,101356.22
2018-05-03T09:12:48.301Z,101362.97
2018-05-03T09:13:52.464Z,101369.76
2018-05-03T09:14:56.640Z,101364.84
2018-05-03T09:16:01.593Z,101370.49
2018-05-03T09:17:05.794Z,101372.01
2018-05-03T09:18:10.731Z,101374.06
2018-05-03T09:19:14.952Z,101371.42
2018-05-03T09:20:19.159Z,101371.63
2018-05-03T09:21:23.329Z,101373.14
2018-05-03T09:22:27.560Z,101371.63
2018-05-03T09:23:31.681Z,101366.35
2018-05-03T09:24:36.629Z,101376.80
2018-05-03T09:25:40.830Z,101374.75
2018-05-03T09:26:45.008Z,101381.00
2018-05-03T09:27:49.285Z,101382.11
2018-05-03T09:28:53.451Z,101384.39
2018-05-03T09:29:57.641Z,101384.12
2018-05-03T09:31:01.810Z,101382.97
2018-05-03T09:32:05.985Z,101386.30
2018-05-03T09:33:10.144Z,101386.20
2018-05-03T09:34:14.505Z,101386.58
2018-05-03T09:35:18.736Z,101383.05
2018-05-03T09:36:22.909Z,101383.75
2018-05-03T09:37:27.852Z,101389.48
2018-05-03T09:38:32.789Z,101391.41
2018-05-03T09:39:36.977Z,101394.13
2018-05-03T09:40:41.908Z,101395.42
2018-05-03T09:41:46.871Z,101398.34
2018-05-03T09:42:51.055Z,101395.19
2018-05-03T09:43:55.981Z,101395.08
2018-05-03T09:45:00.905Z,101406.19
2018-05-03T09:46:05.842Z,101406.62
2018-05-03T09:47:10.079Z,101401.99
2018-05-03T09:48:14.257Z,101406.52
2018-05-03T09:49:19.199Z,101407.98
2018-05-03T09:50:23.485Z,101408.69
2018-05-03T09:51:28.433Z,101411.28
2018-05-03T09:52:32.834Z,101406.91
2018-05-03T09:53:37.018Z,101403.52
2018-05-03T09:54:41.193Z,101408.34
2018-05-03T09:55:45.353Z,101410.27
2018-05-03T09:56:49.522Z,101412.03
2018-05-03T09:57:53.700Z,101410.48
2018-05-03T09:58:57.864Z,101410.27
2018-05-03T10:00:02.040Z,101408.55
2018-05-03T10:01:06.224Z,101408.65
2018-05-03T10:02:10.436Z,101406.84
2018-05-03T10:03:15.417Z,101407.60
2018-05-03T10:04:19.582Z,101411.61
2018-05-03T10:05:23.746Z,101416.59
2018-05-03T10:06:29.409Z,101418.75
2018-05-03T10:07:34.341Z,101419.75
2018-05-03T10:08:39.384Z,101416.91
2018-05-03T10:09:44.326Z,101422.72
2018-05-03T10:10:48.526Z,101422.35
2018-05-03T10:11:52.694Z,101423.86
2018-05-03T10:12:56.862Z,101426.38
2018-05-03T10:14:01.051Z,101426.30
2018-05-03T10:15:06.171Z,101427.72
2018-05-03T10:16:11.140Z,101422.63
2018-05-03T10:17:15.300Z,101429.02
2018-05-03T10:18:19.460Z,101426.14
2018-05-03T10:19:23.640Z,101429.51
2018-05-03T10:20:28.602Z,101430.17
2018-05-03T10:21:32.796Z,101436.02
2018-05-03T10:22:37.197Z,101432.17
2018-05-03T10:23:41.372Z,101436.66
2018-05-03T10:24:47.159Z,101434.00
2018-05-03T10:25:51.466Z,101438.19
2018-05-03T10:26:56.425Z,101440.05
2018-05-03T10:28:00.797Z,101442.22
2018-05-03T10:29:04.988Z,101445.86
2018-05-03T10:30:09.177Z,101440.32
2018-05-03T10:31:13.353Z,101444.34
2018-05-03T10:32:17.517Z,101442.19
2018-05-03T10:33:23.391Z,101444.05
2018-05-03T10:34:28.317Z,101451.41
2018-05-03T10:35:33.245Z,101447.58
2018-05-03T10:36:37.413Z,101446.21
2018-05-03T10:37:41.580Z,101447.07
2018-05-03T10:38:45.769Z,101454.81
2018-05-03T10:39:50.700Z,101455.70
2018-05-03T10:40:55.642Z,101453.50
2018-05-03T10:42:00.623Z,101451.52
2018-05-03T10:43:04.829Z,101455.71
2018-05-03T10:44:09.020Z,101456.23
2018-05-03T10:45:13.196Z,101456.69
2018-05-03T10:46:18.122Z,101453.55
2018-05-03T10:47:23.062Z,101452.20
2018-05-03T10:48:30.255Z,101449.51
2018-05-03T10:49:35.081Z,101449.44
2018-05-03T10:50:39.780Z,101451.09
2018-05-03T10:51:44.722Z,101454.47
2018-05-03T10:52:48.880Z,101456.23
2018-05-03T10:53:54.558Z,101456.95
2018-05-03T10:54:59.492Z,101456.09
2018-05-03T10:56:03.737Z,101463.87
2018-05-03T10:57:07.893Z,101462.21
2018-05-03T10:58:12.825Z,101461.72
2018-05-03T10:59:17.749Z,101461.88
2018-05-03T11:00:22.681Z,101460.09
2018-05-03T11:01:27.647Z,101462.69
2018-05-03T11:02:31.804Z,101460.12
2018-05-03T11:03:35.960Z,101458.20
2018-05-03T11:04:40.120Z,101457.09
2018-05-03T11:05:44.303Z,101464.93
2018-05-03T11:06:48.528Z,101464.66
2018-05-03T11:07:52.710Z,101464.17
2018-05-03T11:08:56.864Z,101465.87
2018-05-03T11:10:01.025Z,101464.73
2018-05-03T11:11:05.292Z,101468.28
2018-05-03T11:12:09.425Z,101469.32
2018-05-03T11:13:13.637Z,101470.97
2018-05-03T11:14:17.838Z,101474.00
2018-05-03T11:15:22.766Z,101470.50
2018-05-03T11:16:27.693Z,101465.58
2018-05-03T11:17:32.625Z,101468.25
2018-05-03T11:18:36.814Z,101468.89
2018-05-03T11:19:41.742Z,101473.91
2018-05-03T11:20:46.701Z,101474.48
2018-05-03T11:21:50.857Z,101473.84
2018-05-03T11:22:55.037Z,101478.95
2018-05-03T11:23:59.211Z,101471.20
2018-05-03T11:25:04.153Z,101474.23
2018-05-03T11:26:08.380Z,101478.52
2018-05-03T11:27:12.549Z,101478.86
2018-05-03T11:28:16.737Z,101478.31
2018-05-03T11:29:22.410Z,101481.34
2018-05-03T11:30:27.342Z,101472.30
2018-05-03T11:31:32.312Z,101479.61
2018-05-03T11:32:36.570Z,101472.84
2018-05-03T11:33:40.724Z,101477.16
2018-05-03T11:34:44.894Z,101473.00
2018-05-03T11:35:49.822Z,101474.77
2018-05-03T11:36:54.882Z,101477.23
2018-05-03T11:37:58.974Z,101469.09
2018-05-03T11:39:03.173Z,101478.34
2018-05-03T11:40:08.105Z,101477.34
2018-05-03T11:41:13.037Z,101476.60
2018-05-03T11:42:18.030Z,101475.95
2018-05-03T11:43:22.192Z,101483.28
2018-05-03T11:44:26.688Z,101485.69
2018-05-03T11:45:31.623Z,101482.72
2018-05-03T11:46:36.548Z,101480.01
2018-05-03T11:47:41.526Z,101484.84
2018-05-03T11:48:45.959Z,101480.23
2018-05-03T11:49:50.069Z,101479.84
2018-05-03T11:50:54.224Z,101482.24
2018-05-03T11:51:58.399Z,101484.41
2018-05-03T11:53:04.065Z,101481.09
2018-05-03T11:54:08.469Z,101490.34
2018-05-03T11:55:12.657Z,101484.09
2018-05-03T11:56:18.339Z,101484.66
2018-05-03T11:57:23.271Z,101488.50
2018-05-03T11:58:27.473Z,101485.58
2018-05-03T11:59:32.460Z,101486.89
2018-05-03T12:00:36.625Z,101488.94
2018-05-03T12:01:40.842Z,101492.39
2018-05-03T12:02:45.009Z,101493.86
2018-05-03T12:03:50.680Z,101493.16
2018-05-03T12:04:55.613Z,101497.14
2018-05-03T12:05:59.789Z,101495.07
2018-05-03T12:07:03.994Z,101495.75
2018-05-03T12:08:09.656Z,101495.26
2018-05-03T12:09:14.588Z,101498.52
2018-05-03T12:10:19.633Z,101497.47
2018-05-03T12:11:24.568Z,101496.12
2018-05-03T12:12:28.800Z,101494.02
2018-05-03T12:13:32.972Z,101497.02
2018-05-03T12:14:37.896Z,101494.36
2018-05-03T12:15:42.824Z,101490.25
2018-05-03T12:16:47.752Z,101491.92
2018-05-03T12:17:52.793Z,101491.90
2018-05-03T12:18:57.722Z,101496.74
2018-05-03T12:20:01.893Z,101499.13
2018-05-03T12:21:07.564Z,101494.64
2018-05-03T12:22:12.497Z,101497.25
2018-05-03T12:23:17.451Z,101499.08
2018-05-03T12:24:21.666Z,101502.55
2018-05-03T12:25:26.569Z,101499.13
2018-05-03T12:26:30.745Z,101500.08
2018-05-03T12:27:36.423Z,101501.13
2018-05-03T12:28:41.448Z,101495.57
2018-05-03T12:29:46.429Z,101493.23
2018-05-03T12:30:50.589Z,101495.11
2018-05-03T12:31:55.537Z,101495.86
2018-05-03T12:32:59.773Z,101490.39
2018-05-03T12:34:05.478Z,101490.66
2018-05-03T12:35:09.870Z,101493.08
2018-05-03T12:36:14.035Z,101497.66
2018-05-03T12:37:18.192Z,101499.92
2018-05-03T12:38:22.348Z,101501.34
2018-05-03T12:39:26.515Z,101503.66
2018-05-03T12:40:31.506Z,101499.23
2018-05-03T12:41:35.689Z,101498.15